Time;durP1;ratioP1;P1;durP2;ratioP2;P2;SDS_P1;SDS_P2;PMS_P1;PMS_P2;Temp;Humidity;BMP_temperature;BMP_pressure;BME280_temperature;BME280_humidity;BME280_pressure;Samples;Min_cycle;Max_cycle;Signal;HPM_P1;HPM_P2
2021/06/28 00:01:12;;;;;;;5.40;4.80;;;;;;;26.02;58.67;99267.52;1806009;78;21021;-73
2021/06/28 00:03:41;;;;;;;5.50;4.87;;;;;;;25.98;58.74;99275.47;1783427;79;21005;-73
2021/06/28 00:06:08;;;;;;;5.55;5.05;;;;;;;25.95;58.81;99273.85;1793113;78;21041;-75
2021/06/28 00:08:37;;;;;;;5.85;5.33;;;;;;;25.92;58.92;99274.40;1845446;77;21202;-77
2021/06/28 00:11:06;;;;;;;5.92;5.33;;;;;;;25.90;58.99;99276.00;1851604;77;20991;-76
2021/06/28 00:13:36;;;;;;;5.30;4.87;;;;;;;25.88;59.02;99275.47;1853618;77;21544;-72
2021/06/28 00:16:04;;;;;;;6.90;4.97;;;;;;;25.87;59.09;99273.86;1855942;77;21053;-72
2021/06/28 00:18:31;;;;;;;5.67;5.17;;;;;;;25.84;59.14;99282.58;1852072;76;21060;-72
2021/06/28 00:20:59;;;;;;;5.75;5.25;;;;;;;25.80;59.22;99275.52;1848943;76;21493;-75
2021/06/28 00:23:26;;;;;;;8.23;5.97;;;;;;;25.77;59.27;99280.70;1854915;77;20997;-73
2021/06/28 00:25:53;;;;;;;6.17;5.60;;;;;;;25.77;59.34;99288.86;1846831;77;21053;-74
2021/06/28 00:28:22;;;;;;;6.30;5.70;;;;;;;25.74;59.40;99286.16;1853405;76;21508;-71
2021/06/28 00:30:49;;;;;;;7.95;5.72;;;;;;;25.72;59.45;99286.19;1822710;77;21060;-72
2021/06/28 00:33:18;;;;;;;5.80;5.22;;;;;;;25.69;59.50;99283.45;1844051;77;21140;-68
2021/06/28 00:35:46;;;;;;;6.25;5.50;;;;;;;25.65;59.57;99276.42;1833465;77;21075;-72
2021/06/28 00:38:14;;;;;;;6.62;5.97;;;;;;;25.63;59.60;99291.38;1849319;76;21025;-68
2021/06/28 00:40:41;;;;;;;5.85;5.40;;;;;;;25.60;59.63;99281.88;1853768;77;21500;-69
2021/06/28 00:43:09;;;;;;;5.45;5.03;;;;;;;25.59;59.61;99286.23;1783263;80;21013;-69
2021/06/28 00:45:40;;;;;;;5.65;5.15;;;;;;;25.56;59.60;99287.61;1855896;77;21136;-70
2021/06/28 00:48:10;;;;;;;7.37;5.15;;;;;;;25.53;59.66;99288.15;1840550;77;21619;-72
2021/06/28 00:50:43;;;;;;;6.47;5.47;;;;;;;25.52;59.71;99287.90;1823976;76;21049;-72
2021/06/28 00:53:12;;;;;;;5.62;5.10;;;;;;;25.49;59.79;99284.36;1835734;77;21557;-70
2021/06/28 00:55:40;;;;;;;7.72;5.25;;;;;;;25.46;59.85;99286.30;1834475;76;21062;-70
2021/06/28 00:58:06;;;;;;;6.05;5.55;;;;;;;25.43;59.92;99284.12;1840110;77;21808;-70
2021/06/28 01:00:33;;;;;;;6.15;5.12;;;;;;;25.41;59.93;99289.02;1833026;77;21080;-72
2021/06/28 01:03:00;;;;;;;6.28;5.67;;;;;;;25.40;59.95;99287.38;1832166;77;21031;-71
2021/06/28 01:05:31;;;;;;;5.33;4.92;;;;;;;25.39;59.98;99292.56;1837786;77;21482;-71
2021/06/28 01:07:57;;;;;;;5.67;5.17;;;;;;;25.36;60.01;99288.48;1840581;76;21046;-70
2021/06/28 01:10:24;;;;;;;7.05;5.20;;;;;;;25.35;60.03;99288.77;1840074;76;21131;-70
2021/06/28 01:12:50;;;;;;;5.53;5.03;;;;;;;25.33;60.01;99295.03;1827493;77;21199;-72
2021/06/28 01:15:18;;;;;;;5.80;5.30;;;;;;;25.33;59.98;99294.48;1822191;78;21009;-69
2021/06/28 01:17:45;;;;;;;6.03;5.40;;;;;;;25.32;59.95;99299.64;1837835;77;21025;-75
2021/06/28 01:20:19;;;;;;;5.30;4.90;;;;;;;25.29;59.92;99310.53;1849084;77;21072;-72
2021/06/28 01:22:49;;;;;;;6.17;4.95;;;;;;;25.28;59.87;99317.08;1817797;77;21799;-75
2021/06/28 01:25:17;;;;;;;6.03;5.22;;;;;;;25.27;59.87;99314.63;1834826;77;21076;-74
2021/06/28 01:27:44;;;;;;;6.03;5.12;;;;;;;25.24;59.85;99305.09;1830452;76;21536;-75
2021/06/28 01:30:15;;;;;;;6.87;5.40;;;;;;;25.23;59.79;99312.19;1820584;78;21001;-75
2021/06/28 01:32:44;;;;;;;6.17;5.55;;;;;;;25.20;59.75;99308.06;1825552;77;21503;-75
2021/06/28 01:35:12;;;;;;;6.15;5.50;;;;;;;25.17;59.72;99307.28;1826942;77;21053;-75
2021/06/28 01:37:39;;;;;;;6.45;5.20;;;;;;;25.16;59.72;99310.27;1842517;77;21083;-74
2021/06/28 01:40:08;;;;;;;5.75;5.08;;;;;;;25.15;59.71;99316.77;1845651;77;21006;-74
2021/06/28 01:42:35;;;;;;;5.53;5.10;;;;;;;25.12;59.70;99328.47;1841147;77;21053;-72
2021/06/28 01:45:09;;;;;;;5.92;5.35;;;;;;;25.10;59.70;99311.62;1829439;76;21013;-74
2021/06/28 01:47:37;;;;;;;5.28;4.83;;;;;;;25.08;59.71;99315.71;1831484;77;21458;-74
2021/06/28 01:50:05;;;;;;;5.65;5.15;;;;;;;25.05;59.75;99314.37;1830076;77;21501;-73
2021/06/28 01:52:32;;;;;;;7.40;5.20;;;;;;;25.04;59.75;99309.20;1827262;77;21064;-73
2021/06/28 01:55:00;;;;;;;6.08;5.58;;;;;;;25.02;59.72;99304.59;1836829;77;21021;-73
2021/06/28 01:57:26;;;;;;;6.08;5.53;;;;;;;25.01;59.67;99302.94;1843155;77;21014;-74
2021/06/28 01:59:52;;;;;;;6.08;5.58;;;;;;;25.00;59.64;99305.41;1827065;77;21782;-75
2021/06/28 02:02:18;;;;;;;6.60;5.67;;;;;;;24.99;59.59;99301.05;1837788;77;21470;-74
2021/06/28 02:04:47;;;;;;;5.87;5.05;;;;;;;24.96;59.56;99304.33;1838244;77;21147;-73
2021/06/28 02:07:14;;;;;;;6.90;5.97;;;;;;;24.93;59.54;99315.17;1789024;77;21250;-73
2021/06/28 02:09:41;;;;;;;5.95;5.33;;;;;;;24.89;59.60;99318.17;1846665;77;20990;-73
2021/06/28 02:12:09;;;;;;;5.55;5.05;;;;;;;24.87;59.61;99317.63;1846650;77;21105;-74
2021/06/28 02:14:36;;;;;;;5.97;5.40;;;;;;;24.84;59.64;99319.00;1827829;77;21034;-73
2021/06/28 02:17:02;;;;;;;5.92;5.17;;;;;;;24.82;59.65;99313.55;1847259;76;21302;-74
2021/06/28 02:19:29;;;;;;;5.65;5.15;;;;;;;24.80;59.65;99316.56;1832417;77;21016;-73
2021/06/28 02:21:55;;;;;;;5.97;5.47;;;;;;;24.80;59.67;99319.80;1846944;77;21611;-73
2021/06/28 02:24:22;;;;;;;5.40;4.92;;;;;;;24.75;59.75;99317.91;1846661;77;22169;-74
2021/06/28 02:26:48;;;;;;;5.47;5.08;;;;;;;24.73;59.80;99329.59;1840672;76;21017;-74
2021/06/28 02:29:15;;;;;;;6.40;5.10;;;;;;;24.70;59.86;99330.13;1820336;77;21057;-73
2021/06/28 02:31:43;;;;;;;5.83;5.33;;;;;;;24.68;59.92;99329.58;1847112;77;21025;-73
2021/06/28 02:34:10;;;;;;;5.85;5.37;;;;;;;24.65;59.98;99322.80;1844811;77;21030;-73
2021/06/28 02:36:38;;;;;;;6.80;5.80;;;;;;;24.62;60.02;99316.55;1849339;77;21013;-73
2021/06/28 02:39:06;;;;;;;7.00;5.65;;;;;;;24.61;60.09;99323.59;1846241;77;21049;-74
2021/06/28 02:41:33;;;;;;;7.62;5.15;;;;;;;24.60;60.11;99324.15;1828253;77;21018;-75
2021/06/28 02:43:59;;;;;;;6.30;5.70;;;;;;;24.58;60.17;99316.81;1786865;79;21390;-75
2021/06/28 02:46:25;;;;;;;7.40;6.15;;;;;;;24.57;60.20;99329.30;1790766;79;21609;-73
2021/06/28 02:48:52;;;;;;;5.75;5.35;;;;;;;24.53;60.24;99320.88;1765342;79;21126;-73
2021/06/28 02:51:19;;;;;;;6.83;6.28;;;;;;;24.50;60.31;99320.86;1782548;79;21534;-73
2021/06/28 02:53:46;;;;;;;5.87;5.10;;;;;;;24.50;60.36;99330.36;1783176;79;20990;-73
2021/06/28 02:56:12;;;;;;;7.03;5.42;;;;;;;24.49;60.38;99330.09;1788662;79;21081;-72
2021/06/28 02:58:51;;;;;;;9.65;5.83;;;;;;;24.47;60.38;99332.27;1752525;80;21565;-73
2021/06/28 03:01:19;;;;;;;5.50;5.08;;;;;;;24.45;60.42;99335.77;1755565;80;21161;-74
2021/06/28 03:03:47;;;;;;;6.08;5.58;;;;;;;24.42;60.44;99336.33;1776358;80;21057;-74
2021/06/28 03:06:14;;;;;;;8.48;5.97;;;;;;;24.41;60.51;99336.59;1795112;79;21053;-72
2021/06/28 03:08:42;;;;;;;8.00;6.83;;;;;;;24.39;60.52;99341.48;1787469;79;21065;-73
2021/06/28 03:11:09;;;;;;;6.62;6.03;;;;;;;24.37;60.54;99334.95;1841153;77;21014;-75
2021/06/28 03:13:36;;;;;;;6.92;6.30;;;;;;;24.34;60.59;99340.39;1836760;77;21899;-75
2021/06/28 03:16:05;;;;;;;7.75;6.20;;;;;;;24.34;60.56;99334.95;1838043;77;21049;-75
2021/06/28 03:18:33;;;;;;;7.25;6.53;;;;;;;24.33;60.61;99338.74;1838977;77;21050;-76
2021/06/28 03:21:00;;;;;;;7.55;6.50;;;;;;;24.32;60.61;99343.91;1839292;77;21205;-75
2021/06/28 03:23:27;;;;;;;7.03;5.58;;;;;;;24.32;60.62;99345.82;1823149;77;21026;-75
2021/06/28 03:25:55;;;;;;;6.40;5.90;;;;;;;24.31;60.63;99343.63;1836275;77;21033;-74
2021/06/28 03:28:22;;;;;;;6.95;6.17;;;;;;;24.32;60.64;99349.34;1841187;77;20990;-75
2021/06/28 03:30:48;;;;;;;7.28;5.72;;;;;;;24.31;60.63;99349.05;1834519;77;21509;-75
2021/06/28 03:33:15;;;;;;;6.17;5.42;;;;;;;24.31;60.58;99346.89;1826809;77;21521;-74
2021/06/28 03:35:42;;;;;;;8.38;6.20;;;;;;;24.30;60.61;99345.27;1838048;77;21032;-75
2021/06/28 03:38:08;;;;;;;10.10;9.10;;;;;;;24.29;60.58;99349.86;1833804;77;22013;-73
2021/06/28 03:40:35;;;;;;;15.40;11.53;;;;;;;24.29;60.59;99344.44;1834766;76;21013;-75
2021/06/28 03:43:09;;;;;;;10.75;9.60;;;;;;;24.29;60.57;99349.06;1847484;77;21002;-75
2021/06/28 03:45:36;;;;;;;8.93;8.13;;;;;;;24.29;60.52;99343.63;1839363;77;21033;-73
2021/06/28 03:48:04;;;;;;;7.62;6.53;;;;;;;24.28;60.45;99346.05;1831044;77;21075;-71
2021/06/28 03:50:30;;;;;;;7.85;6.72;;;;;;;24.28;60.45;99341.47;1794771;77;21847;-72
2021/06/28 03:52:57;;;;;;;6.55;5.78;;;;;;;24.27;60.42;99345.25;1812234;78;21022;-73
2021/06/28 03:55:25;;;;;;;6.10;5.53;;;;;;;24.27;60.38;99341.73;1787383;78;21065;-73
2021/06/28 03:57:51;;;;;;;6.65;5.80;;;;;;;24.27;60.33;99352.03;1802791;78;21037;-73
2021/06/28 04:00:21;;;;;;;6.90;6.22;;;;;;;24.27;60.27;99339.02;1810887;78;21038;-72
2021/06/28 04:02:48;;;;;;;5.87;5.37;;;;;;;24.29;60.20;99347.70;1799107;78;21871;-72
2021/06/28 04:05:25;;;;;;;5.75;5.20;;;;;;;24.28;60.15;99346.89;1742878;82;21053;-74
2021/06/28 04:07:49;;;;;;;;;;;;;;;24.30;60.17;99348.80;1732520;81;21015;-73
2021/06/28 04:10:19;;;;;;;7.67;6.22;;;;;;;24.30;60.15;99347.44;1748825;81;20165;-75
2021/06/28 04:12:48;;;;;;;6.33;5.53;;;;;;;24.24;60.28;99346.32;1743442;81;21534;-73
2021/06/28 04:15:15;;;;;;;6.60;6.05;;;;;;;24.23;60.28;99349.58;1736217;81;21299;-73
2021/06/28 04:17:43;;;;;;;6.47;5.85;;;;;;;24.26;60.27;99342.80;1772721;80;21494;-72
2021/06/28 04:20:12;;;;;;;6.65;5.90;;;;;;;24.26;60.20;99340.08;1766287;80;21529;-74
2021/06/28 04:22:38;;;;;;;5.65;5.10;;;;;;;24.27;60.14;99341.73;1769051;80;21060;-74
2021/06/28 04:25:09;;;;;;;6.60;6.10;;;;;;;24.27;60.16;99345.25;1766312;80;22084;-75
2021/06/28 04:27:35;;;;;;;6.53;6.03;;;;;;;24.27;60.16;99344.44;1814132;78;22140;-74
2021/06/28 04:30:04;;;;;;;6.62;6.00;;;;;;;24.26;60.12;99337.37;1808803;78;21099;-74
2021/06/28 04:32:30;;;;;;;6.17;5.67;;;;;;;24.24;60.11;99339.02;1799952;78;21576;-74
2021/06/28 04:34:58;;;;;;;6.33;5.83;;;;;;;24.23;60.08;99337.92;1805602;78;21065;-74
2021/06/28 04:37:25;;;;;;;9.20;6.10;;;;;;;24.23;60.10;99337.92;1811915;78;21028;-75
2021/06/28 04:39:51;;;;;;;7.60;5.95;;;;;;;24.21;60.11;99344.97;1813394;78;21518;-75
2021/06/28 04:42:19;;;;;;;6.17;5.67;;;;;;;24.21;60.12;99346.88;1786716;79;21037;-72
2021/06/28 04:44:45;;;;;;;6.83;5.83;;;;;;;24.21;60.11;99343.61;1803748;78;21214;-72
2021/06/28 04:47:11;;;;;;;6.28;5.78;;;;;;;24.20;60.10;99344.68;1790802;78;21033;-72
2021/06/28 04:49:37;;;;;;;7.17;6.58;;;;;;;24.21;60.04;99346.88;1797933;76;21553;-72
2021/06/28 04:52:04;;;;;;;12.25;10.95;;;;;;;24.20;60.06;99344.68;1790651;79;21077;-74
2021/06/28 04:54:31;;;;;;;10.75;9.65;;;;;;;24.21;60.03;99346.33;1793453;79;21014;-74
2021/06/28 04:56:58;;;;;;;8.83;7.62;;;;;;;24.20;60.04;99346.03;1755926;79;21033;-74
2021/06/28 04:59:24;;;;;;;8.08;6.80;;;;;;;24.20;60.08;99352.02;1774933;79;21019;-75
2021/06/28 05:01:50;;;;;;;6.53;5.97;;;;;;;24.21;60.08;99351.75;1797544;79;21579;-74
2021/06/28 05:04:17;;;;;;;6.87;6.12;;;;;;;24.22;60.05;99353.40;1756708;79;21101;-74
2021/06/28 05:06:47;;;;;;;8.65;7.70;;;;;;;24.24;60.01;99350.39;1800678;79;20998;-75
2021/06/28 05:09:13;;;;;;;9.73;8.83;;;;;;;24.25;59.97;99349.33;1767517;79;21089;-75
2021/06/28 05:11:39;;;;;;;9.05;6.35;;;;;;;24.26;59.93;99344.16;1790816;79;21065;-75
2021/06/28 05:14:06;;;;;;;7.20;6.42;;;;;;;24.28;59.90;99350.12;1804680;79;20983;-74
2021/06/28 05:16:33;;;;;;;6.75;5.47;;;;;;;24.30;59.84;99352.06;1789521;79;21203;-74
2021/06/28 05:18:59;;;;;;;5.83;5.30;;;;;;;24.31;59.83;99351.77;1766923;80;21070;-74
2021/06/28 05:21:26;;;;;;;5.45;4.90;;;;;;;24.34;59.78;99350.44;1774421;79;21054;-73
2021/06/28 05:23:52;;;;;;;5.22;4.67;;;;;;;24.36;59.76;99346.91;1791601;79;21090;-75
2021/06/28 05:26:18;;;;;;;6.55;5.17;;;;;;;24.38;59.71;99339.31;1783604;79;21014;-73
2021/06/28 05:28:45;;;;;;;5.67;5.17;;;;;;;24.41;59.67;99350.97;1768657;79;21125;-74
2021/06/28 05:31:11;;;;;;;8.23;6.53;;;;;;;24.43;59.61;99344.73;1780006;79;21023;-74
2021/06/28 05:33:37;;;;;;;13.43;10.82;;;;;;;24.46;59.57;99344.20;1789689;79;21009;-74
2021/06/28 05:36:04;;;;;;;11.80;8.75;;;;;;;24.50;59.45;99334.98;1795095;79;21008;-74
2021/06/28 05:38:31;;;;;;;8.28;7.47;;;;;;;24.55;59.30;99334.19;1797964;79;21025;-71
2021/06/28 05:40:57;;;;;;;6.72;6.03;;;;;;;24.59;59.13;99333.92;1799645;79;21086;-76
2021/06/28 05:43:24;;;;;;;6.00;5.40;;;;;;;24.62;58.96;99333.39;1779789;79;21006;-73
2021/06/28 05:45:50;;;;;;;8.38;5.83;;;;;;;24.65;58.78;99333.67;1770391;79;21640;-73
2021/06/28 05:48:16;;;;;;;5.55;5.05;;;;;;;24.68;58.60;99337.73;1776240;80;21058;-75
2021/06/28 05:50:43;;;;;;;7.37;5.70;;;;;;;24.71;58.43;99335.84;1828163;77;21088;-74
2021/06/28 05:53:09;;;;;;;5.83;5.10;;;;;;;24.76;58.28;99344.52;1856063;77;21129;-76
2021/06/28 05:55:36;;;;;;;5.10;4.47;;;;;;;24.80;58.18;99338.30;1839175;77;21042;-78
2021/06/28 05:58:03;;;;;;;5.00;4.60;;;;;;;24.87;58.03;99338.01;1845061;77;20997;-75
2021/06/28 06:00:29;;;;;;;5.00;4.50;;;;;;;24.93;57.88;99343.16;1820862;77;21048;-75
2021/06/28 06:03:00;;;;;;;4.83;4.42;;;;;;;25.03;57.72;99344.24;1847109;76;21482;-74
2021/06/28 06:05:25;;;;;;;5.65;4.80;;;;;;;25.08;57.52;99350.48;1838547;77;21118;-74
2021/06/28 06:07:52;;;;;;;4.65;4.25;;;;;;;25.15;57.34;99354.82;1830354;77;21575;-74
2021/06/28 06:10:20;;;;;;;5.05;4.55;;;;;;;25.18;57.12;99352.38;1829115;77;21084;-73
2021/06/28 06:12:46;;;;;;;4.95;4.47;;;;;;;25.22;56.90;99349.41;1843626;77;21103;-76
2021/06/28 06:15:13;;;;;;;5.90;4.50;;;;;;;25.25;56.68;99365.18;1853731;76;21596;-78
2021/06/28 06:17:40;;;;;;;5.08;4.58;;;;;;;25.28;56.56;99356.48;1853255;76;21517;-74
2021/06/28 06:20:09;;;;;;;5.90;4.55;;;;;;;25.32;56.45;99366.24;1855239;77;21576;-75
2021/06/28 06:22:35;;;;;;;4.85;4.45;;;;;;;25.35;56.34;99361.63;1849969;77;21029;-74
2021/06/28 06:25:01;;;;;;;4.85;4.45;;;;;;;25.41;56.26;99361.08;1848283;77;21465;-74
2021/06/28 06:27:28;;;;;;;4.90;4.60;;;;;;;25.46;56.37;99370.03;1848689;77;20999;-73
2021/06/28 06:29:54;;;;;;;5.17;4.65;;;;;;;25.51;56.56;99368.64;1849980;77;21161;-73
2021/06/28 06:32:21;;;;;;;5.78;5.28;;;;;;;25.57;58.11;99366.73;1838290;77;21068;-74
2021/06/28 06:34:48;;;;;;;9.30;8.30;;;;;;;25.64;58.96;99366.45;1848241;76;21025;-75
2021/06/28 06:37:15;;;;;;;7.47;5.55;;;;;;;25.73;59.28;99368.04;1833733;77;21063;-73
2021/06/28 06:39:42;;;;;;;6.08;5.25;;;;;;;25.80;59.30;99374.02;1827386;77;21014;-72
2021/06/28 06:42:09;;;;;;;5.83;5.22;;;;;;;25.86;59.48;99372.38;1843522;77;23014;-73
2021/06/28 06:44:35;;;;;;;5.90;5.30;;;;;;;25.94;59.50;99375.09;1854384;77;20993;-75
2021/06/28 06:47:02;;;;;;;17.25;5.80;;;;;;;25.99;58.45;99380.48;1844075;77;21001;-73
2021/06/28 06:49:28;;;;;;;5.75;5.22;;;;;;;26.03;57.85;99381.56;1852447;77;21017;-72
2021/06/28 06:51:54;;;;;;;6.00;5.05;;;;;;;26.05;57.72;99380.73;1810150;76;21744;-75
2021/06/28 06:54:21;;;;;;;5.83;5.22;;;;;;;26.09;57.80;99388.60;1808815;77;21850;-74
2021/06/28 06:56:48;;;;;;;5.47;4.95;;;;;;;26.12;57.96;99387.25;1820650;78;20990;-74
2021/06/28 06:59:15;;;;;;;5.75;5.25;;;;;;;26.17;58.27;99389.13;1821461;78;21116;-75
2021/06/28 07:01:42;;;;;;;6.12;5.10;;;;;;;26.21;58.23;99393.74;1801542;77;20986;-74
2021/06/28 07:04:08;;;;;;;5.67;5.17;;;;;;;26.25;57.80;99389.89;1838302;77;21049;-71
2021/06/28 07:06:35;;;;;;;5.83;5.12;;;;;;;26.28;57.68;99396.95;1835137;77;21122;-73
2021/06/28 07:09:01;;;;;;;6.10;4.87;;;;;;;26.33;57.80;99393.93;1812158;76;21484;-72
2021/06/28 07:11:28;;;;;;;5.40;4.95;;;;;;;26.37;57.71;99398.55;1804996;78;21030;-74
2021/06/28 07:13:55;;;;;;;5.42;4.92;;;;;;;26.41;57.31;99394.72;1826060;77;20999;-73
2021/06/28 07:16:25;;;;;;;7.10;5.70;;;;;;;26.44;57.15;99399.06;1845023;77;21021;-73
2021/06/28 07:18:52;;;;;;;5.30;4.80;;;;;;;26.48;57.14;99400.66;1826895;78;21080;-73
2021/06/28 07:21:18;;;;;;;5.70;4.10;;;;;;;26.54;56.83;99398.71;1836202;78;21021;-73
2021/06/28 07:23:46;;;;;;;5.12;4.62;;;;;;;26.57;56.43;99399.52;1815819;77;21064;-75
2021/06/28 07:26:12;;;;;;;4.95;4.55;;;;;;;26.60;56.52;99394.36;1812148;77;21076;-73
2021/06/28 07:28:39;;;;;;;4.90;4.50;;;;;;;26.64;56.63;99403.59;1805953;76;21013;-74
2021/06/28 07:31:06;;;;;;;6.15;5.10;;;;;;;26.71;56.71;99405.17;1842798;77;21049;-73
2021/06/28 07:33:38;;;;;;;4.78;4.45;;;;;;;26.77;56.19;99406.77;1829709;77;21010;-74
2021/06/28 07:36:00;;;;;;;4.78;4.35;;;;;;;26.80;55.86;99403.48;1821354;77;21541;-73
2021/06/28 07:38:27;;;;;;;4.30;4.00;;;;;;;26.84;55.60;99415.44;1815113;78;21541;-74
2021/06/28 07:40:53;;;;;;;5.58;4.60;;;;;;;26.87;55.30;99412.16;1827949;77;21040;-74
2021/06/28 07:43:20;;;;;;;4.85;4.45;;;;;;;26.91;55.46;99402.84;1813817;76;21124;-76
2021/06/28 07:45:47;;;;;;;5.08;4.60;;;;;;;26.94;55.12;99403.64;1830694;77;21013;-72
2021/06/28 07:48:15;;;;;;;5.40;4.30;;;;;;;26.98;55.29;99408.78;1823271;77;21056;-75
2021/06/28 07:50:44;;;;;;;6.25;4.62;;;;;;;27.03;55.29;99406.84;1844185;76;21049;-75
2021/06/28 07:53:10;;;;;;;5.58;4.85;;;;;;;27.06;54.80;99406.80;1832147;77;21002;-76
2021/06/28 07:55:38;;;;;;;5.42;4.47;;;;;;;27.11;54.94;99411.42;1845750;77;21092;-74
2021/06/28 07:58:05;;;;;;;5.28;4.10;;;;;;;27.15;54.77;99408.38;1838008;77;21010;-72
2021/06/28 08:00:33;;;;;;;4.78;4.35;;;;;;;27.18;54.63;99406.45;1850748;76;21021;-74
2021/06/28 08:03:00;;;;;;;4.62;4.33;;;;;;;27.22;54.60;99407.51;1847333;76;21443;-73
2021/06/28 08:05:27;;;;;;;4.83;4.42;;;;;;;27.26;54.45;99405.86;1832103;77;21038;-73
2021/06/28 08:07:54;;;;;;;5.50;4.50;;;;;;;27.28;54.35;99413.77;1831886;77;21048;-73
2021/06/28 08:10:21;;;;;;;4.85;4.45;;;;;;;27.31;54.10;99414.53;1832448;77;20986;-73
2021/06/28 08:12:49;;;;;;;5.20;4.58;;;;;;;27.34;53.86;99403.06;1841101;77;21034;-73
2021/06/28 08:15:18;;;;;;;4.95;4.47;;;;;;;27.37;53.76;99409.29;1839248;77;21552;-74
2021/06/28 08:17:44;;;;;;;5.25;4.75;;;;;;;27.37;53.44;99405.20;1827269;78;21433;-72
2021/06/28 08:20:12;;;;;;;6.17;5.28;;;;;;;27.40;53.47;99411.45;1828898;77;21120;-73
2021/06/28 08:22:39;;;;;;;8.80;7.42;;;;;;;27.39;53.30;99409.81;1823374;77;21009;-74
2021/06/28 08:25:07;;;;;;;6.28;5.70;;;;;;;27.39;53.28;99409.81;1824834;77;21166;-73
2021/06/28 08:27:34;;;;;;;5.50;4.90;;;;;;;27.42;53.38;99411.98;1783533;77;21029;-72
2021/06/28 08:30:05;;;;;;;5.65;4.92;;;;;;;27.46;53.50;99404.28;1819493;76;21443;-73
2021/06/28 08:32:31;;;;;;;4.72;4.22;;;;;;;27.51;53.36;99417.08;1811652;78;21278;-73
2021/06/28 08:34:59;;;;;;;4.40;4.00;;;;;;;27.56;53.01;99414.83;1758436;80;21006;-72
2021/06/28 08:37:27;;;;;;;5.15;4.65;;;;;;;27.61;53.09;99424.34;1767349;79;21015;-75
2021/06/28 08:39:53;;;;;;;5.05;4.55;;;;;;;27.64;52.77;99419.13;1828141;77;21049;-69
2021/06/28 08:42:21;;;;;;;5.35;4.75;;;;;;;27.71;52.77;99424.78;1831229;77;21052;-71
2021/06/28 08:44:49;;;;;;;6.12;4.53;;;;;;;27.76;52.90;99423.38;1827171;77;21124;-71
2021/06/28 08:47:17;;;;;;;8.15;7.50;;;;;;;27.79;52.99;99424.95;1834729;77;21466;-70
2021/06/28 08:49:44;;;;;;;45.28;40.90;;;;;;;27.82;52.87;99429.84;1835576;76;20994;-71
2021/06/28 08:52:11;;;;;;;61.55;55.70;;;;;;;27.82;51.94;99424.38;1835334;77;21045;-72
2021/06/28 08:54:37;;;;;;;82.57;74.50;;;;;;;27.81;51.78;99433.66;1841046;77;20999;-67
2021/06/28 08:57:04;;;;;;;106.25;95.83;;;;;;;27.82;52.08;99427.67;1822705;77;22363;-69
2021/06/28 08:59:31;;;;;;;75.87;68.35;;;;;;;27.83;52.42;99432.84;1800207;79;21052;-69
2021/06/28 09:01:57;;;;;;;63.92;57.62;;;;;;;27.85;52.29;99434.73;1804679;79;21119;-69
2021/06/28 09:04:24;;;;;;;62.55;56.10;;;;;;;27.87;52.77;99428.14;1772054;79;20998;-71
2021/06/28 09:06:50;;;;;;;36.93;33.35;;;;;;;27.87;53.08;99435.78;1788067;79;21065;-74
2021/06/28 09:09:32;;;;;;;30.05;27.15;;;;;;;27.90;53.11;99438.53;1790493;78;21136;-71
2021/06/28 09:12:14;;;;;;;23.12;20.70;;;;;;;27.92;53.24;99438.48;1682910;84;21072;-72
2021/06/28 09:15:19;;;;;;;15.68;14.05;;;;;;;27.95;53.26;99442.02;1746083;80;21077;-77
2021/06/28 09:18:17;;;;;;;14.73;12.80;;;;;;;27.96;52.65;99442.82;1778474;80;21065;-78
2021/06/28 09:21:06;;;;;;;15.45;13.85;;;;;;;27.98;52.78;99438.69;1790698;79;20991;-71
2021/06/28 09:23:59;;;;;;;10.65;9.55;;;;;;;28.00;53.12;99439.20;1783490;79;21290;-70
2021/06/28 09:26:14;;;;;;;8.38;7.60;;;;;;;28.07;53.39;99443.50;1774585;79;21160;-70
2021/06/28 09:28:44;;;;;;;6.65;5.97;;;;;;;28.12;53.04;99448.91;1775146;80;21081;-73
2021/06/28 09:31:17;;;;;;;6.33;5.83;;;;;;;28.16;52.08;99439.86;1789785;79;21046;-74
2021/06/28 09:33:44;;;;;;;7.15;6.20;;;;;;;28.19;51.90;99445.28;1759798;80;21034;-72
2021/06/28 09:36:20;;;;;;;9.35;6.05;;;;;;;28.21;51.65;99446.59;1765096;80;21125;-72
2021/06/28 09:38:47;;;;;;;6.20;5.60;;;;;;;28.27;51.86;99452.01;1782964;79;21018;-70
2021/06/28 09:41:29;;;;;;;6.37;5.78;;;;;;;28.29;51.68;99456.06;1806858;79;21105;-72
2021/06/28 09:44:04;;;;;;;6.78;6.10;;;;;;;28.32;51.64;99452.76;1804667;79;21569;-71
2021/06/28 09:46:31;;;;;;;7.42;6.83;;;;;;;28.35;51.68;99446.69;1768519;80;21549;-71
2021/06/28 09:48:58;;;;;;;7.28;6.58;;;;;;;28.39;51.21;99451.02;1785495;79;21152;-71
2021/06/28 09:51:33;;;;;;;9.15;6.62;;;;;;;28.40;50.94;99449.36;1809292;79;21523;-74
2021/06/28 09:54:16;;;;;;;7.20;5.97;;;;;;;28.45;50.85;99449.84;1769752;80;21050;-73
2021/06/28 09:56:47;;;;;;;6.72;6.10;;;;;;;28.48;50.68;99446.53;1768072;79;21110;-72
2021/06/28 09:59:39;;;;;;;6.40;5.60;;;;;;;28.54;50.90;99447.30;1790510;78;21534;-71
2021/06/28 10:02:26;;;;;;;7.53;5.80;;;;;;;28.57;50.13;99446.17;1755800;80;21158;-72
2021/06/28 10:04:59;;;;;;;8.53;7.08;;;;;;;28.61;50.29;99447.20;1790105;78;21623;-70
2021/06/28 10:07:37;;;;;;;9.28;5.92;;;;;;;28.68;51.13;99445.45;1835726;76;21008;-71
2021/06/28 10:10:28;;;;;;;6.28;5.60;;;;;;;28.73;51.48;99455.52;1828707;77;21529;-70
2021/06/28 10:13:02;;;;;;;8.85;8.08;;;;;;;28.78;50.08;99454.05;1854911;77;21047;-72
2021/06/28 10:15:34;;;;;;;9.40;7.42;;;;;;;28.81;50.38;99453.47;1845819;76;21967;-72
2021/06/28 10:18:02;;;;;;;13.68;7.92;;;;;;;28.86;49.23;99458.04;1843536;77;21597;-72
2021/06/28 10:20:33;;;;;;;7.35;5.92;;;;;;;28.91;49.62;99457.97;1847428;77;21073;-72
2021/06/28 10:22:59;;;;;;;11.88;7.35;;;;;;;28.94;48.78;99458.76;1824016;77;21009;-74
2021/06/28 10:25:27;;;;;;;10.32;8.00;;;;;;;28.98;48.56;99457.05;1851344;77;21064;-72
2021/06/28 10:27:53;;;;;;;9.95;7.10;;;;;;;29.02;48.86;99458.88;1850160;77;21105;-72
2021/06/28 10:30:23;;;;;;;8.05;7.22;;;;;;;29.07;49.06;99458.54;1840718;77;21130;-73
2021/06/28 10:32:53;;;;;;;9.95;7.25;;;;;;;29.12;49.15;99456.57;1842842;76;21006;-71
2021/06/28 10:35:28;;;;;;;9.23;7.55;;;;;;;29.18;48.94;99459.47;1817920;77;21005;-71
2021/06/28 10:38:01;;;;;;;10.58;7.80;;;;;;;29.25;48.41;99451.46;1809738;77;21044;-71
2021/06/28 10:40:28;;;;;;;8.40;7.55;;;;;;;29.32;48.48;99459.54;1848081;77;21097;-70
2021/06/28 10:42:56;;;;;;;11.22;7.83;;;;;;;29.38;48.51;99461.61;1838837;77;21033;-72
2021/06/28 10:45:43;;;;;;;8.85;7.40;;;;;;;29.44;48.41;99459.59;1829037;77;21001;-71
2021/06/28 10:48:14;;;;;;;10.88;7.35;;;;;;;29.48;48.47;99457.34;1831988;77;20986;-72
2021/06/28 10:50:55;;;;;;;;;;;;;;;29.51;48.40;99458.09;1830679;77;21087;-71
2021/06/28 10:53:40;;;;;;;7.90;6.03;;;;;;;29.56;48.38;99458.58;1838737;77;21087;-72
2021/06/28 10:56:27;;;;;;;8.03;5.83;;;;;;;29.52;48.22;99458.36;1835651;77;21061;-72
2021/06/28 10:59:04;;;;;;;7.15;6.20;;;;;;;29.58;47.67;99466.73;1825298;77;21045;-72
2021/06/28 11:01:38;;;;;;;7.78;6.50;;;;;;;29.65;47.98;99462.78;1835707;77;20974;-72
2021/06/28 11:04:10;;;;;;;9.58;6.15;;;;;;;29.71;47.99;99456.09;1835997;77;21453;-70
2021/06/28 11:08:05;;;;;;;6.10;5.50;;;;;;;29.82;47.64;99456.19;1847480;76;22759;-71
2021/06/28 11:10:39;;;;;;;8.90;5.90;;;;;;;29.77;47.66;99459.05;1785759;79;21584;-72
2021/06/28 11:13:28;;;;;;;5.95;5.22;;;;;;;29.79;47.46;99465.83;1820386;76;21513;-71
2021/06/28 11:16:29;;;;;;;6.80;5.50;;;;;;;29.81;47.14;99457.32;1799451;76;21019;-71
2021/06/28 11:18:58;;;;;;;6.15;5.10;;;;;;;29.81;46.41;99464.16;1810204;76;20918;-71
2021/06/28 11:21:41;;;;;;;5.55;5.05;;;;;;;29.82;45.63;99452.65;1810410;78;21015;-71
2021/06/28 11:24:08;;;;;;;8.48;5.83;;;;;;;29.81;45.67;99454.58;1785259;78;21029;-72
2021/06/28 11:26:35;;;;;;;6.22;5.62;;;;;;;29.82;45.84;99455.39;1779919;76;21096;-71
2021/06/28 11:29:01;;;;;;;5.65;5.15;;;;;;;29.82;45.91;99455.39;1806943;76;20952;-72
2021/06/28 11:31:30;;;;;;;6.78;5.50;;;;;;;29.81;45.99;99458.69;1786375;78;20996;-72
2021/06/28 11:33:58;;;;;;;6.10;5.20;;;;;;;29.82;46.07;99458.13;1813600;77;21105;-72
2021/06/28 11:36:34;;;;;;;5.95;5.33;;;;;;;29.81;46.11;99461.99;1798339;77;21050;-71
2021/06/28 11:39:26;;;;;;;5.47;4.67;;;;;;;29.79;46.11;99458.18;1797554;77;22272;-72
2021/06/28 11:42:25;;;;;;;6.28;4.78;;;;;;;29.81;46.15;99455.15;1808005;77;20998;-71